Time;durP1;ratioP1;P1;durP2;ratioP2;P2;SDS_P1;SDS_P2;PMS_P1;PMS_P2;Temp;Humidity;BMP_temperature;BMP_pressure;BME280_temperature;BME280_humidity;BME280_pressure;Samples;Min_cycle;Max_cycle;Signal;HPM_P1;HPM_P2
2021/01/26 00:01:08;;;;;;;2.53;0.70;;;;;;;;;;5117310;28;20467;-78
2021/01/26 00:03:34;;;;;;;3.17;0.60;;;;;;;;;;5117083;28;20035;-78
2021/01/26 00:06:00;;;;;;;2.42;0.77;;;;;;;;;;5117399;28;20115;-78
2021/01/26 00:08:26;;;;;;;2.72;0.70;;;;;;;;;;5117303;28;20024;-77
2021/01/26 00:10:52;;;;;;;2.15;0.63;;;;;;;;;;5117249;28;20035;-77
2021/01/26 00:13:19;;;;;;;2.42;0.80;;;;;;;;;;5117153;28;20038;-77
2021/01/26 00:15:46;;;;;;;2.92;0.70;;;;;;;;;;5116784;28;20028;-78
2021/01/26 00:18:12;;;;;;;2.15;0.90;;;;;;;;;;5117026;28;20088;-77
2021/01/26 00:20:38;;;;;;;2.60;0.77;;;;;;;;;;5117045;28;20103;-78
2021/01/26 00:23:04;;;;;;;2.78;0.95;;;;;;;;;;5116738;28;20378;-77
2021/01/26 00:25:33;;;;;;;2.22;0.77;;;;;;;;;;5116638;28;20046;-78
2021/01/26 00:27:59;;;;;;;2.03;1.10;;;;;;;;;;5116844;28;20082;-77
2021/01/26 00:30:32;;;;;;;3.65;1.00;;;;;;;;;;5116685;28;20037;-78
2021/01/26 00:32:59;;;;;;;4.47;1.83;;;;;;;;;;5116911;28;20474;-78
2021/01/26 00:35:28;;;;;;;6.63;2.90;;;;;;;;;;5116805;28;20015;-78
2021/01/26 00:37:55;;;;;;;5.93;2.03;;;;;;;;;;5116650;28;20062;-78
2021/01/26 00:40:21;;;;;;;2.97;1.20;;;;;;;;;;5116606;28;20147;-77
2021/01/26 00:42:47;;;;;;;3.42;1.58;;;;;;;;;;5098220;28;20028;-78
2021/01/26 00:45:14;;;;;;;4.32;1.23;;;;;;;;;;5116819;28;20451;-77
2021/01/26 00:47:40;;;;;;;3.25;0.80;;;;;;;;;;5116444;28;20031;-78
2021/01/26 00:50:07;;;;;;;3.97;1.55;;;;;;;;;;5116329;28;20118;-78
2021/01/26 00:52:33;;;;;;;2.92;0.88;;;;;;;;;;5116311;28;20011;-77
2021/01/26 00:54:59;;;;;;;2.33;0.80;;;;;;;;;;5115352;28;20110;-78
2021/01/26 00:57:25;;;;;;;2.42;0.60;;;;;;;;;;5115788;28;20417;-77
2021/01/26 00:59:51;;;;;;;3.47;0.73;;;;;;;;;;5116274;28;20088;-78
2021/01/26 01:02:18;;;;;;;4.07;1.08;;;;;;;;;;5115859;28;20051;-78
2021/01/26 01:04:45;;;;;;;2.00;0.70;;;;;;;;;;5116067;28;20084;-77
2021/01/26 01:07:12;;;;;;;1.58;0.60;;;;;;;;;;5115914;28;20069;-77
2021/01/26 01:09:38;;;;;;;2.28;0.60;;;;;;;;;;5116018;28;20030;-78
2021/01/26 01:12:04;;;;;;;1.52;0.60;;;;;;;;;;5115860;28;20027;-77
2021/01/26 01:14:31;;;;;;;2.15;0.60;;;;;;;;;;5115938;28;20034;-78
2021/01/26 01:16:57;;;;;;;4.78;0.60;;;;;;;;;;5115832;28;20027;-77
2021/01/26 01:19:23;;;;;;;2.92;0.75;;;;;;;;;;5115549;28;20080;-77
2021/01/26 01:21:49;;;;;;;3.20;0.80;;;;;;;;;;5115649;28;20069;-78
2021/01/26 01:24:16;;;;;;;5.38;0.60;;;;;;;;;;5116109;28;20031;-79
2021/01/26 01:26:42;;;;;;;2.67;0.50;;;;;;;;;;5115554;28;20038;-78
2021/01/26 01:29:10;;;;;;;2.35;0.50;;;;;;;;;;5115862;28;20027;-77
2021/01/26 01:31:36;;;;;;;1.75;0.52;;;;;;;;;;5115764;28;20020;-78
2021/01/26 01:34:02;;;;;;;2.05;1.15;;;;;;;;;;5115822;28;20026;-77
2021/01/26 01:36:28;;;;;;;2.10;0.68;;;;;;;;;;5115413;28;20069;-77
2021/01/26 01:38:54;;;;;;;2.90;1.17;;;;;;;;;;5115464;28;20027;-77
2021/01/26 01:41:20;;;;;;;2.83;0.85;;;;;;;;;;5115186;28;20110;-77
2021/01/26 01:44:05;;;;;;;3.80;1.00;;;;;;;;;;5115292;28;20547;-77
2021/01/26 01:46:34;;;;;;;3.95;1.02;;;;;;;;;;5115539;28;20104;-78
2021/01/26 01:49:02;;;;;;;3.47;1.05;;;;;;;;;;5115125;28;20092;-78
2021/01/26 01:51:29;;;;;;;3.35;0.80;;;;;;;;;;5115173;28;20034;-79
2021/01/26 01:54:07;;;;;;;3.15;0.90;;;;;;;;;;5080148;28;20044;-77
2021/01/26 01:56:33;;;;;;;2.03;0.57;;;;;;;;;;5115075;28;20043;-78
2021/01/26 01:59:07;;;;;;;2.03;0.80;;;;;;;;;;5114865;28;20031;-77
2021/01/26 02:01:33;;;;;;;2.05;0.60;;;;;;;;;;5114966;28;20034;-78
2021/01/26 02:04:03;;;;;;;4.35;1.00;;;;;;;;;;5115230;28;20026;-77
2021/01/26 02:06:31;;;;;;;2.05;0.85;;;;;;;;;;5114550;28;20046;-77
2021/01/26 02:09:05;;;;;;;4.78;0.75;;;;;;;;;;5114849;28;20026;-78
2021/01/26 02:11:32;;;;;;;3.97;0.90;;;;;;;;;;5114697;28;20032;-78
2021/01/26 02:13:58;;;;;;;6.93;1.02;;;;;;;;;;5114737;28;20027;-77
2021/01/26 02:16:43;;;;;;;5.93;0.90;;;;;;;;;;5114642;28;20023;-78
2021/01/26 02:19:27;;;;;;;2.72;0.70;;;;;;;;;;5114615;28;20491;-78
2021/01/26 02:22:08;;;;;;;2.25;0.63;;;;;;;;;;5114566;28;20119;-78
2021/01/26 02:24:34;;;;;;;3.63;0.68;;;;;;;;;;5114371;28;20023;-78
2021/01/26 02:27:16;;;;;;;1.67;0.55;;;;;;;;;;5114570;28;20039;-78
2021/01/26 02:29:45;;;;;;;2.63;1.00;;;;;;;;;;5114630;28;20052;-78
2021/01/26 02:32:18;;;;;;;1.85;0.70;;;;;;;;;;5114554;28;20031;-77
2021/01/26 02:35:03;;;;;;;0.98;0.52;;;;;;;;;;5114400;28;20027;-78
2021/01/26 02:37:29;;;;;;;2.20;0.70;;;;;;;;;;5114170;28;20028;-78
2021/01/26 02:40:01;;;;;;;1.70;0.63;;;;;;;;;;5114632;28;20028;-77
2021/01/26 02:42:30;;;;;;;4.13;0.80;;;;;;;;;;5114272;28;20043;-77
2021/01/26 02:45:03;;;;;;;3.45;0.50;;;;;;;;;;5095430;28;20394;-77
2021/01/26 02:47:48;;;;;;;1.77;0.60;;;;;;;;;;5114008;28;20106;-78
2021/01/26 02:50:14;;;;;;;3.20;0.75;;;;;;;;;;5114059;28;20059;-77
2021/01/26 02:52:58;;;;;;;1.85;0.60;;;;;;;;;;5114207;28;20556;-77
2021/01/26 02:55:33;;;;;;;2.03;0.60;;;;;;;;;;5113914;28;20106;-78
2021/01/26 02:58:08;;;;;;;2.65;1.08;;;;;;;;;;5113985;28;20074;-78
2021/01/26 03:00:35;;;;;;;3.72;0.55;;;;;;;;;;5113807;28;20111;-77
2021/01/26 03:03:01;;;;;;;3.40;0.90;;;;;;;;;;5113933;28;20037;-78
2021/01/26 03:05:35;;;;;;;1.95;0.85;;;;;;;;;;5114207;28;20424;-77
2021/01/26 03:08:04;;;;;;;4.65;0.70;;;;;;;;;;5113987;28;20068;-78
2021/01/26 03:10:53;;;;;;;2.83;0.80;;;;;;;;;;5113871;28;20035;-77
2021/01/26 03:13:21;;;;;;;3.08;0.77;;;;;;;;;;5113910;28;20034;-77
2021/01/26 03:16:13;;;;;;;5.18;1.17;;;;;;;;;;5113824;28;20084;-78
2021/01/26 03:18:41;;;;;;;2.35;1.00;;;;;;;;;;5108770;28;20043;-77
2021/01/26 03:21:09;;;;;;;7.43;1.52;;;;;;;;;;5113816;28;20036;-77
2021/01/26 03:23:47;;;;;;;4.97;1.30;;;;;;;;;;5113603;28;20038;-77
2021/01/26 03:26:17;;;;;;;2.85;0.90;;;;;;;;;;5113676;28;20034;-77
2021/01/26 03:28:44;;;;;;;1.83;1.05;;;;;;;;;;5113688;28;20023;-77
2021/01/26 03:31:13;;;;;;;3.20;0.80;;;;;;;;;;5113776;28;20031;-78
2021/01/26 03:33:45;;;;;;;2.15;0.60;;;;;;;;;;5113678;28;20127;-78
2021/01/26 03:36:12;;;;;;;2.80;0.70;;;;;;;;;;5113578;28;20466;-78
2021/01/26 03:38:38;;;;;;;1.88;0.60;;;;;;;;;;5113424;28;20081;-77
2021/01/26 03:41:05;;;;;;;3.35;0.80;;;;;;;;;;5113702;28;20027;-78
2021/01/26 03:43:31;;;;;;;3.67;0.93;;;;;;;;;;5113402;28;20077;-78
2021/01/26 03:46:09;;;;;;;4.25;1.20;;;;;;;;;;5113663;28;20557;-78
2021/01/26 03:48:42;;;;;;;4.13;1.10;;;;;;;;;;5113323;28;20717;-77
2021/01/26 03:51:08;;;;;;;2.67;1.27;;;;;;;;;;5113440;28;20043;-77
2021/01/26 03:53:40;;;;;;;3.08;1.10;;;;;;;;;;5113451;28;20089;-79
2021/01/26 03:56:25;;;;;;;3.75;1.30;;;;;;;;;;5113345;28;20440;-77
2021/01/26 03:59:09;;;;;;;2.47;1.00;;;;;;;;;;5113528;28;20098;-77
2021/01/26 04:01:41;;;;;;;4.57;1.25;;;;;;;;;;5113614;28;20475;-78
2021/01/26 04:04:22;;;;;;;8.30;4.32;;;;;;;;;;5113323;28;20520;-77
2021/01/26 04:07:06;;;;;;;3.63;2.25;;;;;;;;;;5113494;28;20035;-77
2021/01/26 04:09:34;;;;;;;6.88;2.85;;;;;;;;;;5113407;28;20027;-79
2021/01/26 04:12:00;;;;;;;4.97;1.65;;;;;;;;;;5113235;28;20024;-79
2021/01/26 04:14:45;;;;;;;6.50;2.20;;;;;;;;;;5113255;28;21249;-78
2021/01/26 04:17:16;;;;;;;5.35;2.90;;;;;;;;;;5113206;28;20024;-77
2021/01/26 04:19:45;;;;;;;4.28;2.90;;;;;;;;;;5113342;28;20031;-79
2021/01/26 04:22:12;;;;;;;2.20;0.98;;;;;;;;;;5112970;28;20028;-77
2021/01/26 04:24:39;;;;;;;4.38;1.35;;;;;;;;;;5113290;28;20378;-78
2021/01/26 04:27:07;;;;;;;6.18;1.90;;;;;;;;;;5113301;28;20081;-78
2021/01/26 04:29:34;;;;;;;2.80;1.40;;;;;;;;;;5113162;28;20041;-79
2021/01/26 04:32:00;;;;;;;7.47;3.50;;;;;;;;;;5116684;28;20030;-77
2021/01/26 04:34:26;;;;;;;6.22;2.75;;;;;;;;;;5097914;28;20038;-79
2021/01/26 04:36:52;;;;;;;6.38;2.78;;;;;;;;;;5116525;28;20073;-79
2021/01/26 04:39:18;;;;;;;8.52;3.53;;;;;;;;;;5116457;28;20386;-78
2021/01/26 04:41:59;;;;;;;57.47;24.90;;;;;;;;;;5116519;28;20026;-78
2021/01/26 04:44:57;;;;;;;64.03;27.23;;;;;;;;;;5116337;28;20024;-77
2021/01/26 04:47:38;;;;;;;8.05;5.10;;;;;;;;;;5116597;28;20031;-79
2021/01/26 04:50:16;;;;;;;11.48;6.15;;;;;;;;;;5116379;28;20035;-78
2021/01/26 04:52:42;;;;;;;8.40;4.57;;;;;;;;;;5116439;28;20027;-78
2021/01/26 04:55:12;;;;;;;4.97;2.38;;;;;;;;;;5116324;28;20060;-78
2021/01/26 04:57:56;;;;;;;5.35;1.55;;;;;;;;;;5116037;28;20076;-78
2021/01/26 05:00:41;;;;;;;6.10;1.30;;;;;;;;;;5097820;28;20904;-78
2021/01/26 05:03:26;;;;;;;2.78;1.10;;;;;;;;;;5116144;28;20411;-77
2021/01/26 05:05:56;;;;;;;6.00;1.20;;;;;;;;;;5116102;28;20569;-76
2021/01/26 05:08:28;;;;;;;5.80;1.98;;;;;;;;;;5116027;28;20030;-78
2021/01/26 05:11:00;;;;;;;15.25;7.95;;;;;;;;;;5116248;28;20074;-77
2021/01/26 05:13:38;;;;;;;12.23;6.85;;;;;;;;;;5115937;28;20042;-77
2021/01/26 05:16:23;;;;;;;11.23;5.80;;;;;;;;;;5115834;28;20034;-78
2021/01/26 05:18:59;;;;;;;6.72;3.30;;;;;;;;;;5097513;28;20055;-77
2021/01/26 05:21:37;;;;;;;5.10;2.65;;;;;;;;;;5115782;28;20023;-77
2021/01/26 05:24:06;;;;;;;4.95;2.50;;;;;;;;;;5115837;28;20038;-77
2021/01/26 05:26:32;;;;;;;6.63;2.15;;;;;;;;;;5115859;28;20100;-77
2021/01/26 05:28:58;;;;;;;4.05;1.42;;;;;;;;;;5115806;28;20024;-79
2021/01/26 05:31:28;;;;;;;12.77;6.20;;;;;;;;;;5115473;28;20081;-79
2021/01/26 05:34:07;;;;;;;14.18;9.13;;;;;;;;;;5115336;28;20015;-78
2021/01/26 05:36:34;;;;;;;7.28;4.00;;;;;;;;;;5115653;28;20035;-78
2021/01/26 05:39:00;;;;;;;12.10;6.22;;;;;;;;;;5115570;28;20034;-78
2021/01/26 05:41:26;;;;;;;21.45;11.75;;;;;;;;;;5114951;28;20024;-77
2021/01/26 05:43:54;;;;;;;18.67;9.80;;;;;;;;;;5115268;28;20085;-80
2021/01/26 05:46:40;;;;;;;11.25;6.18;;;;;;;;;;5115240;28;20409;-78
2021/01/26 05:49:06;;;;;;;8.32;4.38;;;;;;;;;;5115052;28;20100;-77
2021/01/26 05:51:34;;;;;;;6.88;3.63;;;;;;;;;;5115431;28;20031;-77
2021/01/26 05:54:02;;;;;;;8.95;5.15;;;;;;;;;;5114983;28;20452;-77
2021/01/26 05:56:28;;;;;;;26.48;18.02;;;;;;;;;;5115034;28;20050;-77
2021/01/26 05:58:55;;;;;;;61.53;44.42;;;;;;;;;;5115057;28;20102;-77
2021/01/26 06:01:24;;;;;;;64.03;44.58;;;;;;;;;;5114926;28;20026;-77
2021/01/26 06:04:09;;;;;;;74.40;51.60;;;;;;;;;;5114788;28;20043;-77
2021/01/26 06:06:53;;;;;;;39.30;25.63;;;;;;;;;;5115088;28;20094;-77
2021/01/26 06:09:29;;;;;;;38.00;25.08;;;;;;;;;;5114810;28;20032;-77
2021/01/26 06:12:14;;;;;;;66.47;41.25;;;;;;;;;;5112053;28;20031;-77
2021/01/26 06:14:43;;;;;;;68.50;42.25;;;;;;;;;;5112536;28;20034;-77
2021/01/26 06:17:11;;;;;;;64.32;40.95;;;;;;;;;;5095244;28;20036;-77
2021/01/26 06:19:37;;;;;;;51.38;32.17;;;;;;;;;;5089784;28;20082;-77
2021/01/26 06:22:04;;;;;;;50.75;30.67;;;;;;;;;;5101787;28;20098;-77
2021/01/26 06:24:32;;;;;;;35.22;20.80;;;;;;;;;;5098393;27;20402;-78
2021/01/26 06:27:37;;;;;;;26.58;16.38;;;;;;;;;;5094168;28;20387;-76
2021/01/26 06:30:12;;;;;;;24.70;14.23;;;;;;;;;;5029594;28;20362;-77
2021/01/26 06:32:38;;;;;;;20.00;12.75;;;;;;;;;;5031613;28;20112;-77
2021/01/26 06:35:11;;;;;;;18.70;13.57;;;;;;;;;;5056789;28;20054;-77
2021/01/26 06:37:56;;;;;;;24.27;16.40;;;;;;;;;;5101245;28;20035;-78
2021/01/26 06:40:22;;;;;;;20.90;14.13;;;;;;;;;;5096545;28;20024;-77
2021/01/26 06:42:48;;;;;;;22.33;12.75;;;;;;;;;;5111335;28;20080;-79
2021/01/26 06:45:33;;;;;;;27.20;17.15;;;;;;;;;;5112483;28;20532;-80
2021/01/26 06:48:01;;;;;;;31.65;19.33;;;;;;;;;;5108946;28;20031;-79
2021/01/26 06:50:37;;;;;;;18.80;12.13;;;;;;;;;;5097242;28;20031;-79
2021/01/26 06:53:22;;;;;;;25.63;16.35;;;;;;;;;;5091471;28;20032;-80
2021/01/26 06:55:48;;;;;;;;;;;;;;;;;;5106640;28;20496;-79
2021/01/26 06:58:29;;;;;;;19.30;13.00;;;;;;;;;;5078472;28;19953;-77
2021/01/26 07:01:14;;;;;;;71.25;50.03;;;;;;;;;;5079805;28;20035;-73
2021/01/26 07:03:40;;;;;;;;;;;;;;;;;;5112796;28;20077;-79
2021/01/26 07:06:22;;;;;;;67.90;51.53;;;;;;;;;;5112477;28;19904;-78
2021/01/26 07:09:02;;;;;;;37.33;29.52;;;;;;;;;;5108729;28;20436;-79
2021/01/26 07:11:47;;;;;;;27.40;20.08;;;;;;;;;;5101741;28;21295;-80
2021/01/26 07:14:32;;;;;;;17.33;12.30;;;;;;;;;;5103054;28;20028;-79
2021/01/26 07:17:04;;;;;;;18.92;13.20;;;;;;;;;;5094125;28;20028;-79
2021/01/26 07:19:49;;;;;;;10.00;7.63;;;;;;;;;;5100421;28;20486;-80
2021/01/26 07:22:15;;;;;;;;;;;;;;;;;;5099826;28;20425;-79
2021/01/26 07:24:59;;;;;;;6.25;3.88;;;;;;;;;;5109033;28;19904;-79
2021/01/26 07:27:25;;;;;;;11.35;6.88;;;;;;;;;;5091568;28;20023;-81
2021/01/26 07:30:12;;;;;;;18.60;11.93;;;;;;;;;;5091760;28;20020;-78
2021/01/26 07:32:57;;;;;;;11.55;5.57;;;;;;;;;;5091840;28;20024;-80
2021/01/26 07:35:38;;;;;;;10.77;5.47;;;;;;;;;;5102481;28;20135;-80
2021/01/26 07:38:23;;;;;;;12.82;7.47;;;;;;;;;;5105401;28;20023;-78
2021/01/26 07:40:49;;;;;;;;;;;;;;;;;;5094166;28;20024;-78
2021/01/26 07:43:19;;;;;;;6.63;3.55;;;;;;;;;;5091566;28;19912;-79
2021/01/26 07:45:55;;;;;;;4.75;2.85;;;;;;;;;;5073800;28;20024;-77
2021/01/26 07:48:25;;;;;;;4.70;3.20;;;;;;;;;;5091451;28;20029;-79
2021/01/26 07:50:54;;;;;;;5.80;4.05;;;;;;;;;;5091945;28;20030;-79
2021/01/26 07:53:31;;;;;;;5.32;3.83;;;;;;;;;;5091914;28;20020;-79
2021/01/26 07:56:07;;;;;;;2.60;1.33;;;;;;;;;;5102195;28;20542;-83
2021/01/26 07:58:33;;;;;;;4.15;2.13;;;;;;;;;;5110751;28;20105;-80
2021/01/26 08:01:00;;;;;;;6.88;2.63;;;;;;;;;;5109961;28;20081;-81
2021/01/26 08:03:27;;;;;;;3.90;2.22;;;;;;;;;;5104415;28;20036;-77
2021/01/26 08:05:55;;;;;;;5.38;3.05;;;;;;;;;;5109897;28;20023;-79
2021/01/26 08:08:21;;;;;;;5.72;3.70;;;;;;;;;;5113098;28;20390;-79
2021/01/26 08:10:48;;;;;;;7.93;5.35;;;;;;;;;;5099535;28;20028;-77
2021/01/26 08:13:24;;;;;;;5.13;2.63;;;;;;;;;;5095369;28;20032;-79
2021/01/26 08:15:50;;;;;;;6.68;4.05;;;;;;;;;;5095357;28;20036;-77
2021/01/26 08:18:18;;;;;;;4.50;2.63;;;;;;;;;;5095222;28;20111;-80
2021/01/26 08:20:45;;;;;;;4.88;2.03;;;;;;;;;;5095418;28;20021;-82
2021/01/26 08:23:12;;;;;;;3.05;1.92;;;;;;;;;;5076835;28;20056;-79
2021/01/26 08:25:40;;;;;;;3.55;1.98;;;;;;;;;;5094821;28;20032;-79
2021/01/26 08:28:06;;;;;;;3.30;1.42;;;;;;;;;;5094925;28;20032;-82
2021/01/26 08:30:48;;;;;;;3.88;2.47;;;;;;;;;;5094889;28;20028;-78
2021/01/26 08:33:33;;;;;;;5.25;3.22;;;;;;;;;;5095225;28;20489;-78
2021/01/26 08:35:59;;;;;;;;;;;;;;;;;;5095361;28;20544;-80
2021/01/26 08:38:44;;;;;;;5.85;4.13;;;;;;;;;;5094886;28;19908;-83
2021/01/26 08:41:11;;;;;;;1.50;0.73;;;;;;;;;;5095021;28;20039;-77
2021/01/26 08:43:41;;;;;;;2.53;1.63;;;;;;;;;;5094445;28;20039;-79
2021/01/26 08:46:08;;;;;;;2.42;1.63;;;;;;;;;;5094957;28;20028;-79
2021/01/26 08:48:34;;;;;;;2.65;1.40;;;;;;;;;;5094590;28;20028;-76
2021/01/26 08:51:03;;;;;;;4.07;2.70;;;;;;;;;;5094853;28;20032;-78
2021/01/26 08:53:29;;;;;;;4.82;2.88;;;;;;;;;;5094757;28;20027;-80
2021/01/26 08:55:56;;;;;;;6.03;3.50;;;;;;;;;;5094092;28;20040;-79
2021/01/26 08:58:40;;;;;;;5.32;2.95;;;;;;;;;;5095387;28;20105;-79
2021/01/26 09:01:08;;;;;;;2.83;1.60;;;;;;;;;;5112160;28;20047;-80
2021/01/26 09:03:36;;;;;;;3.72;2.72;;;;;;;;;;5114199;28;20071;-82
2021/01/26 09:06:07;;;;;;;4.82;3.17;;;;;;;;;;5110616;28;20035;-79
2021/01/26 09:08:42;;;;;;;1.90;1.27;;;;;;;;;;5080548;28;20063;-83
2021/01/26 09:11:13;;;;;;;3.40;1.95;;;;;;;;;;5096995;28;20056;-78
2021/01/26 09:13:39;;;;;;;3.47;2.13;;;;;;;;;;5107848;28;20378;-69
2021/01/26 09:16:13;;;;;;;2.63;1.63;;;;;;;;;;5095654;28;20161;-80
2021/01/26 09:18:39;;;;;;;4.20;3.10;;;;;;;;;;5101881;28;20107;-78
2021/01/26 09:21:12;;;;;;;3.38;1.45;;;;;;;;;;5103925;27;20032;-78
2021/01/26 09:23:39;;;;;;;3.88;2.88;;;;;;;;;;5103205;28;20134;-79
2021/01/26 09:26:16;;;;;;;4.38;2.38;;;;;;;;;;5103347;28;20039;-77
2021/01/26 09:28:43;;;;;;;2.70;1.75;;;;;;;;;;5093924;28;20364;-79
2021/01/26 09:31:11;;;;;;;5.13;3.25;;;;;;;;;;5094008;28;20032;-79
2021/01/26 09:33:38;;;;;;;4.43;3.15;;;;;;;;;;5094034;28;20125;-80
2021/01/26 09:36:04;;;;;;;4.13;2.53;;;;;;;;;;5094686;28;20020;-79
2021/01/26 09:38:34;;;;;;;2.85;1.25;;;;;;;;;;5094944;28;20035;-78
2021/01/26 09:41:14;;;;;;;3.03;2.53;;;;;;;;;;5094816;28;20039;-80
2021/01/26 09:43:43;;;;;;;2.00;1.30;;;;;;;;;;5094545;28;20629;-78
2021/01/26 09:46:36;;;;;;;5.57;2.30;;;;;;;;;;5094591;28;20161;-78
2021/01/26 09:49:10;;;;;;;3.17;2.20;;;;;;;;;;5081759;28;20047;-80
2021/01/26 09:51:44;;;;;;;2.60;2.20;;;;;;;;;;5105342;28;20028;-78
2021/01/26 09:54:36;;;;;;;2.25;1.50;;;;;;;;;;5105695;28;20028;-81
2021/01/26 09:57:03;;;;;;;2.33;1.75;;;;;;;;;;5090106;28;20114;-82
2021/01/26 09:59:31;;;;;;;3.80;2.80;;;;;;;;;;5096697;28;20352;-81
2021/01/26 10:01:59;;;;;;;4.05;3.08;;;;;;;;;;5085920;28;20118;-79
2021/01/26 10:04:25;;;;;;;2.92;2.00;;;;;;;;;;5098364;28;20040;-77
2021/01/26 10:06:59;;;;;;;3.05;2.13;;;;;;;;;;5113388;28;20062;-80
2021/01/26 10:09:27;;;;;;;4.20;3.05;;;;;;;;;;5105707;28;20099;-80
2021/01/26 10:11:54;;;;;;;5.55;4.50;;;;;;;;;;5074602;28;20032;-79
2021/01/26 10:14:25;;;;;;;3.30;2.20;;;;;;;;;;5080051;28;20039;-77
2021/01/26 10:16:52;;;;;;;4.80;3.67;;;;;;;;;;5099326;28;20036;-77
2021/01/26 10:19:29;;;;;;;4.95;3.88;;;;;;;;;;5099857;28;20119;-81
2021/01/26 10:22:03;;;;;;;5.00;3.80;;;;;;;;;;5103217;28;20487;-79
2021/01/26 10:24:31;;;;;;;4.97;4.30;;;;;;;;;;5092828;28;20028;-81
2021/01/26 10:27:11;;;;;;;11.07;6.95;;;;;;;;;;5094720;28;20026;-78
2021/01/26 10:29:39;;;;;;;4.47;2.72;;;;;;;;;;5100437;28;20028;-76
2021/01/26 10:32:06;;;;;;;3.40;2.20;;;;;;;;;;5096247;28;20535;-78
2021/01/26 10:34:35;;;;;;;8.02;5.80;;;;;;;;;;5105635;28;20043;-77
2021/01/26 10:37:08;;;;;;;3.50;2.67;;;;;;;;;;5098219;28;20050;-78
2021/01/26 10:39:34;;;;;;;5.38;3.97;;;;;;;;;;5101811;28;20563;-78
2021/01/26 10:42:21;;;;;;;3.70;2.78;;;;;;;;;;5096654;28;20039;-75
2021/01/26 10:44:48;;;;;;;3.80;2.88;;;;;;;;;;5092475;28;20017;-77
2021/01/26 10:47:22;;;;;;;3.38;2.42;;;;;;;;;;5103147;28;20047;-78
2021/01/26 10:49:56;;;;;;;5.13;3.67;;;;;;;;;;5092371;28;20103;-79
2021/01/26 10:52:41;;;;;;;5.20;3.40;;;;;;;;;;5105639;28;20028;-78
2021/01/26 10:55:08;;;;;;;3.95;2.65;;;;;;;;;;5112825;28;20026;-77
2021/01/26 10:57:38;;;;;;;4.13;2.78;;;;;;;;;;5112583;28;20048;-79
2021/01/26 11:00:06;;;;;;;5.43;3.50;;;;;;;;;;5103205;28;20486;-77
2021/01/26 11:02:32;;;;;;;3.58;2.35;;;;;;;;;;5101022;28;20040;-79
2021/01/26 11:04:58;;;;;;;4.68;3.90;;;;;;;;;;5103682;28;20390;-80
2021/01/26 11:07:24;;;;;;;6.13;4.00;;;;;;;;;;5092106;28;20386;-79
2021/01/26 11:09:50;;;;;;;4.22;3.17;;;;;;;;;;5092474;28;20043;-77
2021/01/26 11:12:18;;;;;;;4.50;3.15;;;;;;;;;;5091919;28;20028;-77
2021/01/26 11:14:44;;;;;;;7.55;5.47;;;;;;;;;;5092210;28;20036;-79
2021/01/26 11:17:11;;;;;;;5.95;4.60;;;;;;;;;;5092110;28;20069;-78
2021/01/26 11:19:37;;;;;;;3.53;3.05;;;;;;;;;;5092268;28;20040;-79
2021/01/26 11:22:03;;;;;;;6.68;5.43;;;;;;;;;;5091745;28;20096;-79
2021/01/26 11:24:29;;;;;;;5.78;3.97;;;;;;;;;;5092166;28;20105;-78
2021/01/26 11:26:55;;;;;;;4.85;3.90;;;;;;;;;;5092776;28;20668;-79
2021/01/26 11:29:21;;;;;;;6.95;5.30;;;;;;;;;;5112194;28;20059;-79
2021/01/26 11:31:48;;;;;;;6.65;5.15;;;;;;;;;;5097788;28;20027;-78
2021/01/26 11:34:14;;;;;;;4.90;3.88;;;;;;;;;;5099417;28;20033;-78
2021/01/26 11:36:40;;;;;;;24.42;11.55;;;;;;;;;;5112162;28;20432;-79
2021/01/26 11:39:06;;;;;;;5.57;4.60;;;;;;;;;;5113030;28;20055;-76
2021/01/26 11:41:32;;;;;;;7.18;5.90;;;;;;;;;;5105279;28;20467;-79
2021/01/26 11:43:58;;;;;;;4.68;3.80;;;;;;;;;;5098867;28;20089;-78
2021/01/26 11:46:25;;;;;;;4.57;3.28;;;;;;;;;;5104914;27;20062;-78
2021/01/26 11:48:52;;;;;;;4.93;3.67;;;;;;;;;;5110909;27;20561;-79
2021/01/26 11:51:18;;;;;;;4.75;3.30;;;;;;;;;;5102259;28;20107;-80
2021/01/26 11:53:44;;;;;;;4.78;3.90;;;;;;;;;;5086029;28;20024;-81
2021/01/26 11:56:10;;;;;;;3.10;2.67;;;;;;;;;;5105295;27;20382;-78
2021/01/26 11:58:36;;;;;;;4.70;4.18;;;;;;;;;;5109887;27;20550;-78
2021/01/26 12:01:03;;;;;;;2.97;2.55;;;;;;;;;;5103448;28;20479;-78
2021/01/26 12:03:29;;;;;;;5.43;4.63;;;;;;;;;;5104088;28;20081;-76
2021/01/26 12:05:55;;;;;;;4.30;3.90;;;;;;;;;;5129972;27;20035;-85
2021/01/26 12:08:22;;;;;;;6.07;5.47;;;;;;;;;;5114418;28;20099;-78
2021/01/26 12:10:48;;;;;;;4.45;3.13;;;;;;;;;;5106799;28;20122;-80
2021/01/26 12:13:15;;;;;;;3.33;2.70;;;;;;;;;;5112492;27;20026;-80
2021/01/26 12:15:42;;;;;;;3.95;2.35;;;;;;;;;;5092890;27;20033;-79
2021/01/26 12:18:08;;;;;;;3.67;3.03;;;;;;;;;;5094615;28;20028;-80
2021/01/26 12:20:35;;;;;;;3.40;2.40;;;;;;;;;;5101241;28;20035;-77
2021/01/26 12:23:01;;;;;;;4.40;3.97;;;;;;;;;;5099621;28;20059;-77
2021/01/26 12:25:28;;;;;;;3.67;3.17;;;;;;;;;;5095544;28;20024;-83
2021/01/26 12:27:54;;;;;;;4.63;3.90;;;;;;;;;;5095431;28;20034;-76
2021/01/26 12:30:20;;;;;;;7.38;6.38;;;;;;;;;;5095199;28;20035;-80
2021/01/26 12:32:46;;;;;;;6.75;5.20;;;;;;;;;;5112810;28;20157;-77
2021/01/26 12:35:17;;;;;;;6.85;5.38;;;;;;;;;;5098852;28;20031;-78
2021/01/26 12:37:43;;;;;;;3.70;2.40;;;;;;;;;;5104071;27;20817;-79
2021/01/26 12:40:09;;;;;;;4.60;3.05;;;;;;;;;;5105478;28;20500;-79
2021/01/26 12:42:36;;;;;;;5.88;4.75;;;;;;;;;;5097745;27;20047;-77
2021/01/26 12:45:02;;;;;;;5.53;4.13;;;;;;;;;;5102366;28;20036;-77
2021/01/26 12:47:28;;;;;;;5.30;4.50;;;;;;;;;;5119973;27;20133;-78
2021/01/26 12:49:54;;;;;;;4.40;3.47;;;;;;;;;;5084690;28;20132;-79
2021/01/26 12:52:20;;;;;;;4.60;3.90;;;;;;;;;;5101345;28;20077;-76
2021/01/26 12:54:46;;;;;;;4.78;3.75;;;;;;;;;;5101401;28;20028;-80
2021/01/26 12:57:12;;;;;;;5.63;4.65;;;;;;;;;;5101671;28;20123;-80
2021/01/26 12:59:38;;;;;;;3.25;2.88;;;;;;;;;;5107004;28;20035;-80
2021/01/26 13:02:04;;;;;;;7.57;5.38;;;;;;;;;;5099130;28;20032;-80
2021/01/26 13:04:30;;;;;;;4.68;3.63;;;;;;;;;;5110022;27;20038;-79
2021/01/26 13:06:57;;;;;;;4.20;3.20;;;;;;;;;;5134343;27;20381;-80
2021/01/26 13:09:23;;;;;;;2.80;2.47;;;;;;;;;;5131162;27;20019;-76
2021/01/26 13:11:49;;;;;;;2.67;1.92;;;;;;;;;;5134113;27;20027;-77
2021/01/26 13:14:15;;;;;;;4.25;2.88;;;;;;;;;;5129262;27;20071;-77
2021/01/26 13:16:41;;;;;;;5.18;3.75;;;;;;;;;;5085921;28;20032;-79
2021/01/26 13:19:08;;;;;;;5.45;4.00;;;;;;;;;;5104623;28;20586;-78
2021/01/26 13:21:35;;;;;;;4.07;2.85;;;;;;;;;;5112650;28;20032;-70
2021/01/26 13:24:01;;;;;;;4.80;3.92;;;;;;;;;;5111393;27;20036;-67
2021/01/26 13:26:27;;;;;;;7.90;7.05;;;;;;;;;;5098734;28;20032;-67
2021/01/26 13:28:53;;;;;;;5.00;4.15;;;;;;;;;;5110688;28;20594;-67
2021/01/26 13:31:19;;;;;;;7.07;4.20;;;;;;;;;;5112787;28;20156;-82
2021/01/26 13:33:46;;;;;;;8.90;6.07;;;;;;;;;;5101949;28;20036;-75
2021/01/26 13:36:13;;;;;;;7.00;5.30;;;;;;;;;;5104528;27;20106;-79
2021/01/26 13:38:39;;;;;;;7.15;5.13;;;;;;;;;;5133596;27;20482;-79
2021/01/26 13:41:06;;;;;;;7.68;6.28;;;;;;;;;;5133844;27;20031;-81
2021/01/26 13:43:32;;;;;;;6.05;4.53;;;;;;;;;;5094632;27;20032;-78
2021/01/26 13:45:58;;;;;;;4.80;3.20;;;;;;;;;;5092228;28;20078;-79
2021/01/26 13:48:24;;;;;;;5.15;3.92;;;;;;;;;;5092638;28;20020;-79
2021/01/26 13:50:50;;;;;;;5.97;4.45;;;;;;;;;;5091887;28;20028;-79
2021/01/26 13:53:16;;;;;;;6.20;4.97;;;;;;;;;;5092761;28;20024;-77
2021/01/26 13:55:42;;;;;;;10.63;6.90;;;;;;;;;;5091992;28;20066;-80
2021/01/26 13:58:09;;;;;;;5.60;4.43;;;;;;;;;;5091928;28;20024;-78
2021/01/26 14:00:35;;;;;;;6.70;5.28;;;;;;;;;;5092046;28;20020;-79
2021/01/26 14:03:01;;;;;;;10.32;8.10;;;;;;;;;;5091697;28;20376;-83
2021/01/26 14:05:32;;;;;;;8.45;5.65;;;;;;;;;;5092290;28;20024;-79
2021/01/26 14:07:58;;;;;;;9.23;5.72;;;;;;;;;;5091667;28;20102;-79
2021/01/26 14:10:25;;;;;;;6.53;4.78;;;;;;;;;;5091675;28;20398;-77
2021/01/26 14:12:51;;;;;;;7.47;5.68;;;;;;;;;;5091786;28;20032;-83
2021/01/26 14:15:17;;;;;;;8.48;6.03;;;;;;;;;;5092072;28;20089;-80
2021/01/26 14:17:43;;;;;;;11.02;7.15;;;;;;;;;;5091421;28;20395;-80
2021/01/26 14:20:14;;;;;;;8.75;5.45;;;;;;;;;;5098164;28;20534;-80
2021/01/26 14:22:40;;;;;;;7.32;5.97;;;;;;;;;;5103648;28;20040;-82
2021/01/26 14:25:07;;;;;;;6.78;4.90;;;;;;;;;;5073825;28;20400;-79
2021/01/26 14:27:34;;;;;;;8.13;6.05;;;;;;;;;;5073462;28;20032;-77
2021/01/26 14:30:00;;;;;;;7.65;6.13;;;;;;;;;;5100644;27;20103;-80
2021/01/26 14:32:26;;;;;;;7.20;4.72;;;;;;;;;;5103861;28;20136;-77
2021/01/26 14:34:52;;;;;;;6.50;5.55;;;;;;;;;;5100585;28;20031;-84
2021/01/26 14:37:19;;;;;;;7.88;5.80;;;;;;;;;;5107465;28;20039;-81
2021/01/26 14:39:45;;;;;;;7.88;5.93;;;;;;;;;;5111759;28;20031;-82
2021/01/26 14:42:12;;;;;;;8.65;6.10;;;;;;;;;;5093124;28;20437;-81
2021/01/26 14:44:39;;;;;;;10.98;8.88;;;;;;;;;;5094403;28;20107;-81
2021/01/26 14:47:05;;;;;;;12.50;9.18;;;;;;;;;;5111391;28;20031;-81
2021/01/26 14:49:31;;;;;;;8.35;7.05;;;;;;;;;;5111915;28;20046;-78
2021/01/26 14:51:57;;;;;;;11.93;8.55;;;;;;;;;;5111846;28;20054;-80
2021/01/26 14:54:24;;;;;;;6.63;4.85;;;;;;;;;;5111732;28;20089;-82
2021/01/26 14:56:52;;;;;;;6.65;4.95;;;;;;;;;;5111453;28;20044;-84
2021/01/26 14:59:19;;;;;;;6.15;5.38;;;;;;;;;;5111614;28;20062;-81